createdAt,value
2019-05-05T00:02:06.889Z,47.65
2019-05-05T00:04:45.485Z,47.58
2019-05-05T00:07:17.917Z,47.63
2019-05-05T00:09:48.956Z,47.65
2019-05-05T00:12:37.497Z,47.59
2019-05-05T00:15:15.958Z,47.54
2019-05-05T00:17:46.932Z,47.61
2019-05-05T00:20:17.891Z,47.63
2019-05-05T00:22:48.848Z,47.58
2019-05-05T00:25:19.820Z,47.51
2019-05-05T00:27:50.779Z,47.48
2019-05-05T00:30:21.739Z,47.45
2019-05-05T00:32:54.885Z,47.41
2019-05-05T00:35:26.015Z,47.42
2019-05-05T00:37:56.979Z,47.43
2019-05-05T00:40:27.943Z,47.42
2019-05-05T00:42:58.896Z,47.40
2019-05-05T00:45:30.926Z,47.43
2019-05-05T00:48:04.703Z,47.42
2019-05-05T00:50:35.660Z,47.49
2019-05-05T00:53:06.626Z,47.49
2019-05-05T00:55:37.581Z,47.42
2019-05-05T00:58:08.557Z,47.41
2019-05-05T01:00:54.800Z,47.42
2019-05-05T01:03:26.620Z,47.39
2019-05-05T01:06:01.925Z,47.48
2019-05-05T01:08:35.100Z,47.49
2019-05-05T01:11:06.072Z,47.54
2019-05-05T01:13:37.027Z,47.60
2019-05-05T01:16:07.987Z,47.60
2019-05-05T01:18:38.939Z,47.57
2019-05-05T01:21:09.928Z,47.55
2019-05-05T01:23:40.896Z,47.53
2019-05-05T01:26:11.857Z,47.52
2019-05-05T01:28:44.633Z,47.55
2019-05-05T01:31:17.118Z,47.48
2019-05-05T01:33:56.885Z,47.53
2019-05-05T01:36:27.843Z,47.50
2019-05-05T01:39:00.446Z,47.48
2019-05-05T01:41:36.038Z,47.54
2019-05-05T01:44:06.994Z,47.57
2019-05-05T01:46:37.953Z,47.56
2019-05-05T01:49:08.917Z,47.55
2019-05-05T01:51:39.893Z,47.54
2019-05-05T01:54:10.850Z,47.53
2019-05-05T01:56:44.401Z,47.56
2019-05-05T01:59:14.938Z,47.65
2019-05-05T02:01:45.897Z,47.69
2019-05-05T02:04:16.864Z,47.70
2019-05-05T02:06:47.824Z,47.72
2019-05-05T02:09:18.777Z,47.80
2019-05-05T02:11:49.742Z,47.82
2019-05-05T02:14:20.696Z,47.85
2019-05-05T02:16:51.725Z,47.87
2019-05-05T02:19:24.779Z,47.93
2019-05-05T02:21:55.709Z,47.91
2019-05-05T02:24:26.655Z,47.97
2019-05-05T02:26:57.883Z,47.92
2019-05-05T02:29:35.360Z,47.93
2019-05-05T02:32:21.582Z,47.96
2019-05-05T02:34:56.299Z,47.94
2019-05-05T02:37:27.925Z,47.97
2019-05-05T02:40:06.346Z,48.02
2019-05-05T02:42:31.679Z,48.03
2019-05-05T02:45:06.177Z,48.01
2019-05-05T02:47:56.070Z,48.03
2019-05-05T02:50:46.721Z,48.08
2019-05-05T02:53:04.176Z,48.15
2019-05-05T02:55:35.267Z,48.21
2019-05-05T02:58:06.227Z,48.23
2019-05-05T03:00:39.521Z,48.24
2019-05-05T03:03:13.500Z,48.25
2019-05-05T03:05:44.574Z,48.30
2019-05-05T03:08:15.701Z,48.37
2019-05-05T03:10:46.729Z,48.37
2019-05-05T03:13:17.757Z,48.38
2019-05-05T03:15:58.706Z,48.40
2019-05-05T03:18:29.662Z,48.44
2019-05-05T03:21:04.664Z,48.44
2019-05-05T03:23:34.126Z,48.43
2019-05-05T03:26:05.278Z,48.40
2019-05-05T03:28:57.175Z,48.43
2019-05-05T03:31:28.205Z,48.41
2019-05-05T03:34:01.398Z,48.46
2019-05-05T03:36:33.890Z,48.48
2019-05-05T03:39:07.288Z,48.42
2019-05-05T03:41:39.912Z,48.42
2019-05-05T03:44:28.891Z,48.41
2019-05-05T03:46:59.924Z,48.38
2019-05-05T03:49:30.879Z,48.44
2019-05-05T03:52:01.940Z,48.47
2019-05-05T03:54:34.269Z,48.44
2019-05-05T03:57:10.938Z,48.42
2019-05-05T03:59:44.291Z,48.38
2019-05-05T04:02:23.348Z,48.41
2019-05-05T04:04:55.661Z,48.40
2019-05-05T04:07:26.629Z,48.42
2019-05-05T04:09:57.646Z,48.40
2019-05-05T04:12:28.605Z,48.39
2019-05-05T04:15:00.731Z,48.35
2019-05-05T04:17:48.630Z,48.37
2019-05-05T04:20:19.351Z,48.38
2019-05-05T04:22:50.314Z,48.43
2019-05-05T04:25:21.272Z,48.48
2019-05-05T04:27:53.819Z,48.53
2019-05-05T04:30:24.877Z,48.56
2019-05-05T04:32:55.823Z,48.58
2019-05-05T04:35:26.799Z,48.62
2019-05-05T04:37:57.761Z,48.60
2019-05-05T04:40:28.723Z,48.65
2019-05-05T04:42:59.681Z,48.65
2019-05-05T04:45:30.636Z,48.72
2019-05-05T04:48:04.305Z,48.76
2019-05-05T04:50:44.057Z,48.79
2019-05-05T04:53:17.269Z,48.88
2019-05-05T04:55:48.249Z,48.96
2019-05-05T04:58:19.202Z,49.01
2019-05-05T05:00:50.172Z,49.04
2019-05-05T05:03:28.624Z,49.09
2019-05-05T05:06:04.207Z,49.15
2019-05-05T05:08:35.185Z,49.16
2019-05-05T05:11:06.146Z,49.17
2019-05-05T05:13:37.144Z,49.22
2019-05-05T05:16:08.109Z,49.19
2019-05-05T05:18:39.828Z,49.20
2019-05-05T05:21:10.798Z,49.22
2019-05-05T05:23:41.779Z,49.19
2019-05-05T05:26:13.872Z,49.27
2019-05-05T05:28:45.070Z,49.33
2019-05-05T05:31:16.017Z,49.26
2019-05-05T05:33:46.996Z,49.30
2019-05-05T05:36:17.977Z,49.31
2019-05-05T05:38:50.569Z,49.30
2019-05-05T05:41:23.931Z,49.27
2019-05-05T05:43:57.435Z,49.25
2019-05-05T05:46:44.817Z,49.31
2019-05-05T05:49:17.493Z,49.27
2019-05-05T05:51:48.483Z,49.34
2019-05-05T05:54:19.443Z,49.28
2019-05-05T05:56:50.427Z,49.27
2019-05-05T05:59:21.387Z,49.23
2019-05-05T06:02:06.099Z,49.22
2019-05-05T06:04:26.704Z,49.22
2019-05-05T06:06:57.656Z,49.23
2019-05-05T06:09:28.650Z,49.20
2019-05-05T06:11:59.614Z,49.28
2019-05-05T06:14:30.576Z,49.26
2019-05-05T06:17:01.780Z,49.38
2019-05-05T06:19:33.776Z,49.42
2019-05-05T06:22:05.016Z,49.38
2019-05-05T06:24:35.970Z,49.44
2019-05-05T06:27:06.961Z,49.39
2019-05-05T06:29:37.922Z,49.40
2019-05-05T06:32:08.926Z,49.34
2019-05-05T06:34:39.900Z,49.37
2019-05-05T06:37:10.861Z,49.38
2019-05-05T06:39:43.824Z,49.43
2019-05-05T06:42:14.273Z,49.56
2019-05-05T06:44:46.901Z,49.51
2019-05-05T06:47:19.508Z,49.40
2019-05-05T06:49:50.489Z,49.51
2019-05-05T06:52:21.478Z,49.60
2019-05-05T06:54:54.298Z,49.82
2019-05-05T06:57:25.312Z,49.86
2019-05-05T06:59:56.275Z,49.82
2019-05-05T07:02:27.339Z,49.77
2019-05-05T07:04:58.335Z,49.65
2019-05-05T07:07:29.301Z,49.56
2019-05-05T07:10:00.833Z,49.43
2019-05-05T07:12:31.797Z,49.56
2019-05-05T07:15:04.231Z,49.40
2019-05-05T07:17:35.436Z,49.62
2019-05-05T07:20:07.428Z,49.66
2019-05-05T07:22:38.389Z,49.69
2019-05-05T07:25:09.554Z,49.73
2019-05-05T07:27:40.541Z,49.72
2019-05-05T07:30:13.614Z,49.80
2019-05-05T07:32:44.420Z,49.78
2019-05-05T07:35:19.832Z,49.78
2019-05-05T07:37:50.796Z,49.71
2019-05-05T07:40:24.022Z,49.72
2019-05-05T07:42:54.457Z,49.71
2019-05-05T07:45:25.936Z,49.72
2019-05-05T07:47:57.011Z,49.71
2019-05-05T07:50:32.130Z,49.48
2019-05-05T07:53:13.856Z,49.54
2019-05-05T07:55:34.344Z,49.36
2019-05-05T07:58:05.309Z,49.13
2019-05-05T08:00:36.311Z,48.96
2019-05-05T08:03:07.281Z,48.84
2019-05-05T08:05:38.290Z,48.91
2019-05-05T08:08:09.319Z,48.81
2019-05-05T08:10:40.299Z,48.99
2019-05-05T08:13:11.366Z,48.44
2019-05-05T08:15:56.898Z,48.19
2019-05-05T08:18:24.349Z,48.51
2019-05-05T08:20:57.038Z,48.74
2019-05-05T08:23:32.671Z,48.53
2019-05-05T08:26:07.961Z,48.27
2019-05-05T08:28:40.805Z,48.17
2019-05-05T08:31:19.189Z,47.80
2019-05-05T08:33:50.186Z,47.70
2019-05-05T08:36:23.360Z,47.54
2019-05-05T08:38:54.607Z,47.53
2019-05-05T08:41:25.683Z,46.89
2019-05-05T08:43:56.657Z,46.88
2019-05-05T08:46:27.644Z,46.96
2019-05-05T08:48:59.764Z,46.47
2019-05-05T08:51:30.736Z,46.53
2019-05-05T08:54:03.789Z,46.68
2019-05-05T08:56:34.440Z,46.29
2019-05-05T08:59:05.388Z,46.19
2019-05-05T09:01:36.605Z,45.78
2019-05-05T09:04:07.582Z,45.73
2019-05-05T09:06:39.259Z,46.16
2019-05-05T09:11:40.434Z,45.27
2019-05-05T09:14:11.429Z,44.91
2019-05-05T09:16:44.619Z,44.86
2019-05-05T09:19:24.004Z,44.41
2019-05-05T09:21:55.091Z,44.62
2019-05-05T09:24:30.660Z,44.57
2019-05-05T09:27:03.716Z,44.75
2019-05-05T09:29:38.865Z,44.33
2019-05-05T09:32:10.234Z,44.27
